createdAt,value
2022-12-14T00:02:14.607Z,18.27
2022-12-14T00:07:18.126Z,18.52
2022-12-14T00:12:21.675Z,17.77
2022-12-14T00:17:30.679Z,16.63
2022-12-14T00:22:34.396Z,15.80
2022-12-14T00:27:42.945Z,15.55
2022-12-14T00:32:51.525Z,15.85
2022-12-14T00:37:55.415Z,16.00
2022-12-14T00:43:02.400Z,15.55
2022-12-14T00:48:08.028Z,16.97
2022-12-14T00:53:11.734Z,14.57
2022-12-14T00:58:19.074Z,14.95
2022-12-14T01:08:35.508Z,14.27
2022-12-14T01:13:40.295Z,13.75
2022-12-14T01:18:45.671Z,13.57
2022-12-14T01:23:55.358Z,13.07
2022-12-14T01:29:00.603Z,12.63
2022-12-14T01:34:08.250Z,12.50
2022-12-14T01:39:16.304Z,11.95
2022-12-14T01:44:57.290Z,11.32
2022-12-14T01:50:11.423Z,11.50
2022-12-14T01:55:21.450Z,11.68
2022-12-14T02:00:25.469Z,11.20
2022-12-14T02:05:33.975Z,10.35
2022-12-14T02:10:37.978Z,9.95
2022-12-14T02:15:42.232Z,9.90
2022-12-14T02:21:10.947Z,9.52
2022-12-14T02:26:57.423Z,9.20
2022-12-14T02:32:24.870Z,8.75
2022-12-14T02:37:40.425Z,8.60
2022-12-14T02:42:58.740Z,8.40
2022-12-14T02:48:09.912Z,8.70
2022-12-14T02:53:25.955Z,7.85
2022-12-14T02:58:36.425Z,7.60
2022-12-14T03:03:42.525Z,7.53
2022-12-14T03:08:49.006Z,7.47
2022-12-14T03:13:59.609Z,6.80
2022-12-14T03:19:12.121Z,7.47
2022-12-14T03:24:25.159Z,6.93
2022-12-14T03:29:31.798Z,6.55
2022-12-14T03:34:49.219Z,6.85
2022-12-14T03:39:53.189Z,6.47
2022-12-14T03:45:05.601Z,6.40
2022-12-14T03:50:17.132Z,6.07
2022-12-14T03:55:28.211Z,6.30
2022-12-14T04:00:40.947Z,5.78
2022-12-14T04:05:53.736Z,5.32
2022-12-14T04:11:17.337Z,5.22
2022-12-14T04:16:45.710Z,5.75
2022-12-14T04:21:56.622Z,5.28
2022-12-14T04:27:08.015Z,5.20
2022-12-14T04:32:18.887Z,4.95
2022-12-14T04:37:28.643Z,4.75
2022-12-14T04:42:39.748Z,4.88
2022-12-14T04:47:55.694Z,4.72
2022-12-14T04:53:09.456Z,4.32
2022-12-14T04:58:20.861Z,4.45
2022-12-14T05:03:31.424Z,4.90
2022-12-14T05:09:08.393Z,4.50
2022-12-14T05:14:20.859Z,4.50
2022-12-14T05:19:26.782Z,4.22
2022-12-14T05:24:31.963Z,4.18
2022-12-14T05:29:35.929Z,4.40
2022-12-14T05:34:39.521Z,4.07
2022-12-14T05:39:44.646Z,3.80
2022-12-14T05:44:49.047Z,4.05
2022-12-14T05:49:52.948Z,4.53
2022-12-14T05:55:02.406Z,4.38
2022-12-14T06:00:10.720Z,4.03
2022-12-14T06:05:14.658Z,3.83
2022-12-14T06:10:19.803Z,3.80
2022-12-14T06:15:23.583Z,3.63
2022-12-14T06:20:27.422Z,3.78
2022-12-14T06:25:32.708Z,3.58
2022-12-14T06:30:36.504Z,3.58
2022-12-14T06:35:45.190Z,3.50
2022-12-14T06:40:50.435Z,3.50
2022-12-14T06:45:54.657Z,3.33
2022-12-14T06:51:02.055Z,3.70
2022-12-14T06:56:14.752Z,3.57
2022-12-14T07:01:21.596Z,3.42
2022-12-14T07:06:27.526Z,3.30
2022-12-14T07:11:33.305Z,3.63
2022-12-14T07:16:37.924Z,3.38
2022-12-14T07:21:41.672Z,3.17
2022-12-14T07:26:46.723Z,3.20
2022-12-14T07:31:50.515Z,3.13
2022-12-14T07:36:54.973Z,2.97
2022-12-14T07:42:00.161Z,3.20
2022-12-14T07:47:05.320Z,3.08
2022-12-14T07:52:08.871Z,2.78
2022-12-14T07:57:14.443Z,3.20
2022-12-14T08:02:18.285Z,2.95
2022-12-14T08:07:21.957Z,3.10
2022-12-14T08:12:27.001Z,3.10
2022-12-14T08:17:30.718Z,2.70
2022-12-14T08:22:34.768Z,2.95
2022-12-14T08:27:39.825Z,2.83
2022-12-14T08:32:43.673Z,3.20
2022-12-14T08:37:47.851Z,4.00
2022-12-14T08:42:53.069Z,5.18
2022-12-14T08:47:59.053Z,5.38
2022-12-14T08:53:02.680Z,5.88
2022-12-14T08:58:07.562Z,6.63
2022-12-14T09:03:11.832Z,7.60
2022-12-14T09:08:15.553Z,7.30
2022-12-14T09:13:20.593Z,7.30
2022-12-14T09:18:24.288Z,7.00
2022-12-14T09:23:31.129Z,7.10
2022-12-14T09:28:40.746Z,6.47
2022-12-14T09:33:44.611Z,6.75
2022-12-14T09:38:51.852Z,6.63
2022-12-14T09:44:04.244Z,6.75
2022-12-14T09:49:20.688Z,6.65
2022-12-14T09:54:29.639Z,6.30
2022-12-14T09:59:35.515Z,5.75
2022-12-14T10:04:56.894Z,6.20
2022-12-14T10:10:07.303Z,5.55
2022-12-14T10:15:28.048Z,5.97
2022-12-14T10:20:41.094Z,5.45
2022-12-14T10:25:46.719Z,5.80
2022-12-14T10:30:54.966Z,5.18
2022-12-14T10:36:09.308Z,5.60
2022-12-14T10:41:23.415Z,4.90
2022-12-14T10:46:40.957Z,4.78
2022-12-14T10:51:51.010Z,4.75
2022-12-14T10:56:54.844Z,4.88
2022-12-14T11:02:07.236Z,4.50
2022-12-14T11:07:15.837Z,4.80
2022-12-14T11:12:24.644Z,4.68
2022-12-14T11:17:38.137Z,4.50
2022-12-14T11:22:47.198Z,4.40
2022-12-14T11:27:50.830Z,5.57
2022-12-14T11:32:56.546Z,6.30
2022-12-14T11:38:02.185Z,8.18
2022-12-14T11:43:06.928Z,8.35
2022-12-14T11:48:24.219Z,9.57
2022-12-14T11:53:27.756Z,10.10
2022-12-14T11:58:35.727Z,10.73
2022-12-14T12:08:47.980Z,9.80
2022-12-14T12:13:58.881Z,10.10
2022-12-14T12:19:12.424Z,9.52
2022-12-14T12:24:23.578Z,9.10
2022-12-14T12:29:31.835Z,8.82
2022-12-14T12:34:47.382Z,9.18
2022-12-14T12:40:02.176Z,8.55
2022-12-14T12:45:17.030Z,9.10
2022-12-14T12:50:28.166Z,9.02
2022-12-14T12:55:37.424Z,8.68
2022-12-14T13:00:42.922Z,8.35
2022-12-14T13:05:49.675Z,8.68
2022-12-14T13:16:27.176Z,7.85
2022-12-14T13:21:37.533Z,8.10
2022-12-14T13:27:29.276Z,7.78
2022-12-14T13:32:57.145Z,8.10
2022-12-14T13:38:34.245Z,7.38
2022-12-14T13:44:05.143Z,8.03
2022-12-14T13:49:20.658Z,7.45
2022-12-14T13:54:33.970Z,7.22
2022-12-14T13:59:41.975Z,7.28
2022-12-14T14:10:04.294Z,7.22
2022-12-14T14:21:42.726Z,6.65
2022-12-14T14:27:17.945Z,6.60
2022-12-14T14:32:41.770Z,6.88
2022-12-14T14:37:59.436Z,6.97
2022-12-14T14:43:09.054Z,6.20
2022-12-14T14:48:26.320Z,6.30
2022-12-14T14:53:33.481Z,6.53
2022-12-14T14:58:41.075Z,6.07
2022-12-14T15:03:58.884Z,6.00
2022-12-14T15:14:35.641Z,5.63
2022-12-14T15:19:39.407Z,5.50
2022-12-14T15:24:45.693Z,5.47
2022-12-14T15:29:51.304Z,5.63
2022-12-14T15:34:58.279Z,5.75
2022-12-14T15:40:07.100Z,5.28
2022-12-14T15:45:18.975Z,4.95
2022-12-14T15:50:27.916Z,5.28
2022-12-14T15:55:39.468Z,5.95
2022-12-14T16:00:48.460Z,6.45
2022-12-14T16:05:53.660Z,7.15
2022-12-14T16:11:01.882Z,7.05
2022-12-14T16:16:13.781Z,7.97
2022-12-14T16:21:31.619Z,7.78
2022-12-14T16:26:38.700Z,8.52
2022-12-14T16:31:44.263Z,9.63
2022-12-14T16:37:23.193Z,9.18
2022-12-14T16:42:21.799Z,9.20
2022-12-14T16:48:08.360Z,8.98
2022-12-14T16:53:18.934Z,8.10
2022-12-14T16:58:22.617Z,7.68
2022-12-14T17:03:30.599Z,7.13
2022-12-14T17:08:36.214Z,7.05
2022-12-14T17:13:40.022Z,6.38
2022-12-14T17:18:45.029Z,6.35
2022-12-14T17:23:48.904Z,5.72
2022-12-14T17:28:53.657Z,5.45
2022-12-14T17:33:58.744Z,5.13
2022-12-14T17:39:02.515Z,4.63
2022-12-14T17:44:06.912Z,4.60
2022-12-14T17:49:14.058Z,4.68
2022-12-14T17:54:23.482Z,4.37
2022-12-14T17:59:29.626Z,4.38
2022-12-14T18:04:34.761Z,4.38
2022-12-14T18:09:38.371Z,4.30
2022-12-14T18:14:42.239Z,4.03
2022-12-14T18:19:49.616Z,3.80
2022-12-14T18:24:53.510Z,3.60
2022-12-14T18:29:57.453Z,3.75
2022-12-14T18:35:02.637Z,3.35
2022-12-14T18:40:08.625Z,3.58
2022-12-14T18:45:19.861Z,3.63
2022-12-14T18:50:25.978Z,3.30
2022-12-14T18:55:33.439Z,3.42
2022-12-14T19:00:39.614Z,3.85
2022-12-14T19:05:45.880Z,3.60
2022-12-14T19:10:50.525Z,4.38
2022-12-14T19:15:54.994Z,5.30
2022-12-14T19:21:00.164Z,7.57
2022-12-14T19:26:04.893Z,7.68
2022-12-14T19:31:12.441Z,8.63
2022-12-14T19:36:17.463Z,10.48
2022-12-14T19:41:21.589Z,10.63
2022-12-14T19:46:25.677Z,10.07
2022-12-14T19:51:31.150Z,10.02
2022-12-14T19:56:34.796Z,9.60
2022-12-14T20:01:42.023Z,8.70
2022-12-14T20:06:51.689Z,8.27
2022-12-14T20:11:55.236Z,8.35
2022-12-14T20:16:59.071Z,9.45
2022-12-14T20:22:04.512Z,8.98
2022-12-14T20:27:08.223Z,8.30
2022-12-14T20:32:13.008Z,8.63
2022-12-14T20:37:18.095Z,7.70
2022-12-14T20:42:21.699Z,7.72
2022-12-14T20:47:25.548Z,7.50
2022-12-14T20:52:30.677Z,7.80
2022-12-14T20:57:34.322Z,7.32
2022-12-14T21:02:38.206Z,7.72
2022-12-14T21:07:43.381Z,7.20
2022-12-14T21:12:49.745Z,7.18
2022-12-14T21:17:53.541Z,7.18
2022-12-14T21:22:58.613Z,7.13
2022-12-14T21:28:02.252Z,7.28
2022-12-14T21:33:06.515Z,7.07
2022-12-14T21:38:11.578Z,7.25
2022-12-14T21:43:15.178Z,6.65
2022-12-14T21:48:18.867Z,6.82
2022-12-14T21:53:23.976Z,6.32
2022-12-14T21:58:27.622Z,6.63
2022-12-14T22:03:32.853Z,6.88
2022-12-14T22:08:38.464Z,7.43
2022-12-14T22:13:42.397Z,8.10
2022-12-14T22:18:46.766Z,11.07
2022-12-14T22:23:52.192Z,14.38
2022-12-14T22:28:55.932Z,17.63
2022-12-14T22:33:59.787Z,18.50
2022-12-14T22:39:05.027Z,18.70
2022-12-14T22:44:09.463Z,18.10
2022-12-14T22:49:17.902Z,18.38
2022-12-14T22:54:27.113Z,17.73
2022-12-14T22:59:37.376Z,16.90
2022-12-14T23:04:41.161Z,17.50
2022-12-14T23:10:04.300Z,17.33
2022-12-14T23:15:26.858Z,17.30
2022-12-14T23:20:47.992Z,17.20
2022-12-14T23:26:10.831Z,16.10
2022-12-14T23:31:31.809Z,16.15
2022-12-14T23:36:52.880Z,15.27
2022-12-14T23:42:15.465Z,15.05
2022-12-14T23:47:36.530Z,15.60
2022-12-14T23:52:57.602Z,15.00
2022-12-14T23:58:19.859Z,13.88
